sensor_id;sensor_type;location;lat;lon;timestamp;P1;durP1;ratioP1;P2;durP2;ratioP2
71290;SDS011;59073;51.994;4.448;2023-11-22T00:02:19;7.07;;;7.04;;
71290;SDS011;59073;51.994;4.448;2023-11-22T00:04:45;6.70;;;6.66;;
71290;SDS011;59073;51.994;4.448;2023-11-22T00:07:11;7.61;;;7.57;;
71290;SDS011;59073;51.994;4.448;2023-11-22T00:09:36;7.48;;;7.41;;
71290;SDS011;59073;51.994;4.448;2023-11-22T00:12:02;7.09;;;7.05;;
71290;SDS011;59073;51.994;4.448;2023-11-22T00:14:28;6.60;;;6.60;;
71290;SDS011;59073;51.994;4.448;2023-11-22T00:16:54;7.14;;;7.14;;
71290;SDS011;59073;51.994;4.448;2023-11-22T00:19:19;6.99;;;6.99;;
71290;SDS011;59073;51.994;4.448;2023-11-22T00:21:47;6.95;;;6.95;;
71290;SDS011;59073;51.994;4.448;2023-11-22T00:24:13;7.50;;;7.50;;
71290;SDS011;59073;51.994;4.448;2023-11-22T00:26:39;6.45;;;6.42;;
71290;SDS011;59073;51.994;4.448;2023-11-22T00:29:04;6.74;;;6.74;;
71290;SDS011;59073;51.994;4.448;2023-11-22T00:31:30;6.80;;;6.78;;
71290;SDS011;59073;51.994;4.448;2023-11-22T00:33:55;6.61;;;6.55;;
71290;SDS011;59073;51.994;4.448;2023-11-22T00:36:21;6.98;;;6.95;;
71290;SDS011;59073;51.994;4.448;2023-11-22T00:38:46;7.48;;;7.46;;
71290;SDS011;59073;51.994;4.448;2023-11-22T00:41:12;6.80;;;6.78;;
71290;SDS011;59073;51.994;4.448;2023-11-22T00:43:39;7.12;;;7.06;;
71290;SDS011;59073;51.994;4.448;2023-11-22T00:46:05;7.61;;;7.56;;
71290;SDS011;59073;51.994;4.448;2023-11-22T00:48:31;7.57;;;7.56;;
71290;SDS011;59073;51.994;4.448;2023-11-22T00:50:56;7.81;;;7.80;;
71290;SDS011;59073;51.994;4.448;2023-11-22T00:53:22;7.66;;;7.63;;
71290;SDS011;59073;51.994;4.448;2023-11-22T00:55:48;7.66;;;7.62;;
71290;SDS011;59073;51.994;4.448;2023-11-22T00:58:14;7.93;;;7.79;;
71290;SDS011;59073;51.994;4.448;2023-11-22T01:00:39;7.64;;;7.56;;
71290;SDS011;59073;51.994;4.448;2023-11-22T01:03:05;7.67;;;7.60;;
71290;SDS011;59073;51.994;4.448;2023-11-22T01:05:34;7.23;;;7.16;;
71290;SDS011;59073;51.994;4.448;2023-11-22T01:07:59;7.08;;;6.95;;
71290;SDS011;59073;51.994;4.448;2023-11-22T01:10:25;7.36;;;7.22;;
71290;SDS011;59073;51.994;4.448;2023-11-22T01:12:50;6.96;;;6.96;;
71290;SDS011;59073;51.994;4.448;2023-11-22T01:15:15;7.21;;;7.20;;
71290;SDS011;59073;51.994;4.448;2023-11-22T01:17:41;7.55;;;7.54;;
71290;SDS011;59073;51.994;4.448;2023-11-22T01:20:07;7.23;;;7.15;;
71290;SDS011;59073;51.994;4.448;2023-11-22T01:22:35;7.43;;;7.42;;
71290;SDS011;59073;51.994;4.448;2023-11-22T01:25:00;7.12;;;7.12;;
71290;SDS011;59073;51.994;4.448;2023-11-22T01:27:26;7.12;;;7.11;;
71290;SDS011;59073;51.994;4.448;2023-11-22T01:29:52;7.75;;;7.64;;
71290;SDS011;59073;51.994;4.448;2023-11-22T01:32:19;7.39;;;7.31;;
71290;SDS011;59073;51.994;4.448;2023-11-22T01:34:45;6.91;;;6.91;;
71290;SDS011;59073;51.994;4.448;2023-11-22T01:37:10;7.01;;;7.01;;
71290;SDS011;59073;51.994;4.448;2023-11-22T01:39:37;7.46;;;7.43;;
71290;SDS011;59073;51.994;4.448;2023-11-22T01:42:05;7.41;;;7.35;;
71290;SDS011;59073;51.994;4.448;2023-11-22T01:44:31;7.04;;;7.04;;
71290;SDS011;59073;51.994;4.448;2023-11-22T01:46:57;7.29;;;7.29;;
71290;SDS011;59073;51.994;4.448;2023-11-22T01:49:23;7.10;;;7.10;;
71290;SDS011;59073;51.994;4.448;2023-11-22T01:51:49;6.84;;;6.84;;
71290;SDS011;59073;51.994;4.448;2023-11-22T01:54:14;7.34;;;7.33;;
71290;SDS011;59073;51.994;4.448;2023-11-22T01:56:44;7.26;;;7.18;;
71290;SDS011;59073;51.994;4.448;2023-11-22T01:59:10;7.54;;;7.54;;
71290;SDS011;59073;51.994;4.448;2023-11-22T02:01:37;7.08;;;7.08;;
71290;SDS011;59073;51.994;4.448;2023-11-22T02:04:03;7.23;;;7.20;;
71290;SDS011;59073;51.994;4.448;2023-11-22T02:06:29;6.89;;;6.79;;
71290;SDS011;59073;51.994;4.448;2023-11-22T02:08:56;6.85;;;6.83;;
71290;SDS011;59073;51.994;4.448;2023-11-22T02:11:22;6.55;;;6.54;;
71290;SDS011;59073;51.994;4.448;2023-11-22T02:13:50;5.74;;;5.74;;
71290;SDS011;59073;51.994;4.448;2023-11-22T02:16:18;5.47;;;5.45;;
71290;SDS011;59073;51.994;4.448;2023-11-22T02:18:45;5.48;;;5.45;;
71290;SDS011;59073;51.994;4.448;2023-11-22T02:21:12;5.51;;;5.48;;
71290;SDS011;59073;51.994;4.448;2023-11-22T02:23:37;5.26;;;5.25;;
71290;SDS011;59073;51.994;4.448;2023-11-22T02:26:03;5.27;;;5.25;;
71290;SDS011;59073;51.994;4.448;2023-11-22T02:28:28;5.46;;;5.44;;
71290;SDS011;59073;51.994;4.448;2023-11-22T02:30:54;5.04;;;5.03;;
71290;SDS011;59073;51.994;4.448;2023-11-22T02:33:19;5.57;;;5.56;;
71290;SDS011;59073;51.994;4.448;2023-11-22T02:35:45;5.33;;;5.26;;
71290;SDS011;59073;51.994;4.448;2023-11-22T02:38:11;4.94;;;4.84;;
71290;SDS011;59073;51.994;4.448;2023-11-22T02:40:36;4.63;;;4.62;;
71290;SDS011;59073;51.994;4.448;2023-11-22T02:43:02;5.44;;;5.44;;
71290;SDS011;59073;51.994;4.448;2023-11-22T02:45:32;5.91;;;5.87;;
71290;SDS011;59073;51.994;4.448;2023-11-22T02:47:58;5.10;;;5.10;;
71290;SDS011;59073;51.994;4.448;2023-11-22T02:50:26;5.72;;;5.72;;
71290;SDS011;59073;51.994;4.448;2023-11-22T02:52:52;5.74;;;5.74;;
71290;SDS011;59073;51.994;4.448;2023-11-22T02:55:18;5.66;;;5.60;;
71290;SDS011;59073;51.994;4.448;2023-11-22T02:57:44;6.56;;;6.45;;
71290;SDS011;59073;51.994;4.448;2023-11-22T03:00:11;6.28;;;6.23;;
71290;SDS011;59073;51.994;4.448;2023-11-22T03:02:40;6.15;;;6.15;;
71290;SDS011;59073;51.994;4.448;2023-11-22T03:05:10;5.60;;;5.58;;
71290;SDS011;59073;51.994;4.448;2023-11-22T03:07:36;5.04;;;5.02;;
71290;SDS011;59073;51.994;4.448;2023-11-22T03:10:02;5.05;;;5.03;;
71290;SDS011;59073;51.994;4.448;2023-11-22T03:12:28;5.20;;;5.20;;
71290;SDS011;59073;51.994;4.448;2023-11-22T03:14:54;4.81;;;4.80;;
71290;SDS011;59073;51.994;4.448;2023-11-22T03:17:28;5.56;;;5.46;;
71290;SDS011;59073;51.994;4.448;2023-11-22T03:19:55;6.07;;;5.95;;
71290;SDS011;59073;51.994;4.448;2023-11-22T03:22:22;5.55;;;5.55;;
71290;SDS011;59073;51.994;4.448;2023-11-22T03:24:50;5.97;;;5.97;;
71290;SDS011;59073;51.994;4.448;2023-11-22T03:27:16;5.99;;;5.99;;
71290;SDS011;59073;51.994;4.448;2023-11-22T03:29:41;4.27;;;4.27;;
71290;SDS011;59073;51.994;4.448;2023-11-22T03:32:07;3.83;;;3.83;;
71290;SDS011;59073;51.994;4.448;2023-11-22T03:34:33;4.71;;;4.71;;
71290;SDS011;59073;51.994;4.448;2023-11-22T03:36:58;4.37;;;4.37;;
71290;SDS011;59073;51.994;4.448;2023-11-22T03:39:23;4.17;;;4.13;;
71290;SDS011;59073;51.994;4.448;2023-11-22T03:41:50;4.84;;;4.75;;
71290;SDS011;59073;51.994;4.448;2023-11-22T03:44:16;5.13;;;5.10;;
71290;SDS011;59073;51.994;4.448;2023-11-22T03:46:41;4.81;;;4.81;;
71290;SDS011;59073;51.994;4.448;2023-11-22T03:49:07;3.85;;;3.85;;
71290;SDS011;59073;51.994;4.448;2023-11-22T03:51:33;3.80;;;3.76;;
71290;SDS011;59073;51.994;4.448;2023-11-22T03:54:02;4.00;;;3.97;;
71290;SDS011;59073;51.994;4.448;2023-11-22T03:56:28;3.95;;;3.94;;
71290;SDS011;59073;51.994;4.448;2023-11-22T03:58:55;5.41;;;5.41;;
71290;SDS011;59073;51.994;4.448;2023-11-22T04:01:20;4.73;;;4.70;;
71290;SDS011;59073;51.994;4.448;2023-11-22T04:03:46;5.18;;;5.11;;
71290;SDS011;59073;51.994;4.448;2023-11-22T04:06:18;5.90;;;5.84;;
71290;SDS011;59073;51.994;4.448;2023-11-22T04:08:44;6.35;;;6.29;;
71290;SDS011;59073;51.994;4.448;2023-11-22T04:11:11;5.96;;;5.96;;
71290;SDS011;59073;51.994;4.448;2023-11-22T04:13:38;5.64;;;5.60;;
71290;SDS011;59073;51.994;4.448;2023-11-22T04:16:04;5.42;;;5.39;;
71290;SDS011;59073;51.994;4.448;2023-11-22T04:18:33;5.55;;;5.55;;
71290;SDS011;59073;51.994;4.448;2023-11-22T04:21:00;5.45;;;5.45;;
71290;SDS011;59073;51.994;4.448;2023-11-22T04:23:26;5.53;;;5.51;;
71290;SDS011;59073;51.994;4.448;2023-11-22T04:25:52;6.04;;;6.01;;
71290;SDS011;59073;51.994;4.448;2023-11-22T04:28:17;6.11;;;6.11;;
71290;SDS011;59073;51.994;4.448;2023-11-22T04:30:43;5.63;;;5.63;;
71290;SDS011;59073;51.994;4.448;2023-11-22T04:33:08;6.11;;;6.11;;
71290;SDS011;59073;51.994;4.448;2023-11-22T04:35:34;5.85;;;5.85;;
71290;SDS011;59073;51.994;4.448;2023-11-22T04:38:02;6.65;;;6.65;;
71290;SDS011;59073;51.994;4.448;2023-11-22T04:40:29;7.23;;;7.21;;
71290;SDS011;59073;51.994;4.448;2023-11-22T04:42:54;6.70;;;6.63;;
71290;SDS011;59073;51.994;4.448;2023-11-22T04:45:20;4.98;;;4.93;;
71290;SDS011;59073;51.994;4.448;2023-11-22T04:47:45;2.80;;;2.79;;
71290;SDS011;59073;51.994;4.448;2023-11-22T04:50:11;2.34;;;2.33;;
71290;SDS011;59073;51.994;4.448;2023-11-22T04:52:36;2.50;;;2.48;;
71290;SDS011;59073;51.994;4.448;2023-11-22T04:55:01;3.32;;;3.27;;
71290;SDS011;59073;51.994;4.448;2023-11-22T04:57:27;6.14;;;6.08;;
71290;SDS011;59073;51.994;4.448;2023-11-22T04:59:53;4.73;;;4.69;;
71290;SDS011;59073;51.994;4.448;2023-11-22T05:02:18;3.81;;;3.81;;
71290;SDS011;59073;51.994;4.448;2023-11-22T05:04:44;5.30;;;5.29;;
71290;SDS011;59073;51.994;4.448;2023-11-22T05:07:13;5.61;;;5.61;;
71290;SDS011;59073;51.994;4.448;2023-11-22T05:09:39;6.41;;;6.40;;
71290;SDS011;59073;51.994;4.448;2023-11-22T05:12:05;5.74;;;5.66;;
71290;SDS011;59073;51.994;4.448;2023-11-22T05:14:30;6.72;;;6.70;;
71290;SDS011;59073;51.994;4.448;2023-11-22T05:16:56;7.22;;;7.21;;
71290;SDS011;59073;51.994;4.448;2023-11-22T05:19:22;7.64;;;7.64;;
71290;SDS011;59073;51.994;4.448;2023-11-22T05:21:47;8.12;;;8.08;;
71290;SDS011;59073;51.994;4.448;2023-11-22T05:24:13;8.51;;;8.48;;
71290;SDS011;59073;51.994;4.448;2023-11-22T05:26:40;9.01;;;9.01;;
71290;SDS011;59073;51.994;4.448;2023-11-22T05:29:06;8.53;;;8.45;;
71290;SDS011;59073;51.994;4.448;2023-11-22T05:31:31;8.78;;;8.64;;
71290;SDS011;59073;51.994;4.448;2023-11-22T05:33:57;8.61;;;8.53;;
71290;SDS011;59073;51.994;4.448;2023-11-22T05:36:22;8.96;;;8.94;;
71290;SDS011;59073;51.994;4.448;2023-11-22T05:38:47;8.79;;;8.63;;
71290;SDS011;59073;51.994;4.448;2023-11-22T05:41:13;8.85;;;8.76;;
71290;SDS011;59073;51.994;4.448;2023-11-22T05:43:38;8.32;;;8.21;;
71290;SDS011;59073;51.994;4.448;2023-11-22T05:46:04;8.62;;;8.49;;
71290;SDS011;59073;51.994;4.448;2023-11-22T05:48:30;8.78;;;8.71;;
71290;SDS011;59073;51.994;4.448;2023-11-22T05:50:55;8.62;;;8.51;;
71290;SDS011;59073;51.994;4.448;2023-11-22T05:53:21;9.41;;;9.32;;
71290;SDS011;59073;51.994;4.448;2023-11-22T05:55:47;9.75;;;9.61;;
71290;SDS011;59073;51.994;4.448;2023-11-22T05:58:13;9.65;;;9.61;;
71290;SDS011;59073;51.994;4.448;2023-11-22T06:00:45;9.52;;;9.42;;
71290;SDS011;59073;51.994;4.448;2023-11-22T06:03:12;9.64;;;9.59;;
71290;SDS011;59073;51.994;4.448;2023-11-22T06:05:39;9.78;;;9.78;;
71290;SDS011;59073;51.994;4.448;2023-11-22T06:08:05;9.08;;;9.02;;
71290;SDS011;59073;51.994;4.448;2023-11-22T06:10:30;9.20;;;9.09;;
71290;SDS011;59073;51.994;4.448;2023-11-22T06:12:56;9.54;;;9.54;;
71290;SDS011;59073;51.994;4.448;2023-11-22T06:15:21;9.68;;;9.61;;
71290;SDS011;59073;51.994;4.448;2023-11-22T06:17:47;9.48;;;9.45;;
71290;SDS011;59073;51.994;4.448;2023-11-22T06:20:16;9.48;;;9.40;;
71290;SDS011;59073;51.994;4.448;2023-11-22T06:22:41;9.33;;;9.28;;
71290;SDS011;59073;51.994;4.448;2023-11-22T06:25:10;10.23;;;10.08;;
71290;SDS011;59073;51.994;4.448;2023-11-22T06:27:39;10.21;;;10.09;;
71290;SDS011;59073;51.994;4.448;2023-11-22T06:30:05;10.26;;;10.17;;
71290;SDS011;59073;51.994;4.448;2023-11-22T06:32:31;10.62;;;10.57;;
71290;SDS011;59073;51.994;4.448;2023-11-22T06:34:57;10.43;;;10.32;;
71290;SDS011;59073;51.994;4.448;2023-11-22T06:37:23;10.68;;;10.59;;
71290;SDS011;59073;51.994;4.448;2023-11-22T06:39:48;10.81;;;10.71;;
71290;SDS011;59073;51.994;4.448;2023-11-22T06:42:15;11.27;;;11.08;;
71290;SDS011;59073;51.994;4.448;2023-11-22T06:44:41;10.54;;;10.41;;
71290;SDS011;59073;51.994;4.448;2023-11-22T06:47:07;10.30;;;10.19;;
71290;SDS011;59073;51.994;4.448;2023-11-22T06:49:32;10.46;;;10.33;;
71290;SDS011;59073;51.994;4.448;2023-11-22T06:51:58;10.02;;;9.86;;
71290;SDS011;59073;51.994;4.448;2023-11-22T06:54:24;10.19;;;10.11;;
71290;SDS011;59073;51.994;4.448;2023-11-22T06:56:49;10.02;;;9.97;;
71290;SDS011;59073;51.994;4.448;2023-11-22T06:59:16;9.46;;;9.42;;
71290;SDS011;59073;51.994;4.448;2023-11-22T07:01:42;9.10;;;9.07;;
71290;SDS011;59073;51.994;4.448;2023-11-22T07:04:07;10.09;;;9.94;;
71290;SDS011;59073;51.994;4.448;2023-11-22T07:06:33;9.68;;;9.60;;
71290;SDS011;59073;51.994;4.448;2023-11-22T07:08:58;10.03;;;10.01;;
71290;SDS011;59073;51.994;4.448;2023-11-22T07:11:24;9.60;;;9.58;;
71290;SDS011;59073;51.994;4.448;2023-11-22T07:13:51;10.29;;;10.22;;
71290;SDS011;59073;51.994;4.448;2023-11-22T07:16:17;10.70;;;10.65;;
71290;SDS011;59073;51.994;4.448;2023-11-22T07:18:44;10.93;;;10.73;;
71290;SDS011;59073;51.994;4.448;2023-11-22T07:21:10;10.73;;;10.58;;
71290;SDS011;59073;51.994;4.448;2023-11-22T07:23:36;10.65;;;10.64;;
71290;SDS011;59073;51.994;4.448;2023-11-22T07:26:03;10.77;;;10.77;;
71290;SDS011;59073;51.994;4.448;2023-11-22T07:28:28;11.17;;;11.08;;
71290;SDS011;59073;51.994;4.448;2023-11-22T07:30:54;11.02;;;10.99;;
71290;SDS011;59073;51.994;4.448;2023-11-22T07:33:19;10.53;;;10.49;;
71290;SDS011;59073;51.994;4.448;2023-11-22T07:35:46;11.35;;;11.30;;
71290;SDS011;59073;51.994;4.448;2023-11-22T07:38:11;11.08;;;10.92;;
71290;SDS011;59073;51.994;4.448;2023-11-22T07:40:37;11.32;;;11.09;;
71290;SDS011;59073;51.994;4.448;2023-11-22T07:43:03;11.43;;;11.31;;
71290;SDS011;59073;51.994;4.448;2023-11-22T07:45:30;11.12;;;11.10;;
71290;SDS011;59073;51.994;4.448;2023-11-22T07:47:57;11.45;;;11.38;;
71290;SDS011;59073;51.994;4.448;2023-11-22T07:50:24;11.28;;;11.19;;
71290;SDS011;59073;51.994;4.448;2023-11-22T07:52:50;11.44;;;11.24;;
71290;SDS011;59073;51.994;4.448;2023-11-22T07:55:16;11.36;;;11.32;;
71290;SDS011;59073;51.994;4.448;2023-11-22T07:57:46;11.19;;;11.11;;
71290;SDS011;59073;51.994;4.448;2023-11-22T08:00:16;11.33;;;11.20;;
71290;SDS011;59073;51.994;4.448;2023-11-22T08:02:45;11.60;;;11.39;;
71290;SDS011;59073;51.994;4.448;2023-11-22T08:05:11;10.85;;;10.74;;
71290;SDS011;59073;51.994;4.448;2023-11-22T08:07:37;10.66;;;10.64;;
71290;SDS011;59073;51.994;4.448;2023-11-22T08:10:05;11.37;;;11.25;;
71290;SDS011;59073;51.994;4.448;2023-11-22T08:12:44;11.06;;;10.88;;
71290;SDS011;59073;51.994;4.448;2023-11-22T08:15:15;10.93;;;10.76;;
71290;SDS011;59073;51.994;4.448;2023-11-22T08:17:41;11.25;;;11.12;;
71290;SDS011;59073;51.994;4.448;2023-11-22T08:20:07;10.71;;;10.53;;
71290;SDS011;59073;51.994;4.448;2023-11-22T08:22:38;10.89;;;10.75;;
71290;SDS011;59073;51.994;4.448;2023-11-22T08:25:07;10.84;;;10.75;;
71290;SDS011;59073;51.994;4.448;2023-11-22T08:27:33;11.40;;;11.32;;
71290;SDS011;59073;51.994;4.448;2023-11-22T08:29:59;10.56;;;10.50;;
71290;SDS011;59073;51.994;4.448;2023-11-22T08:32:32;8.87;;;8.85;;
71290;SDS011;59073;51.994;4.448;2023-11-22T08:34:58;8.35;;;8.35;;
71290;SDS011;59073;51.994;4.448;2023-11-22T08:37:23;9.05;;;9.03;;
71290;SDS011;59073;51.994;4.448;2023-11-22T08:39:49;9.20;;;9.15;;
71290;SDS011;59073;51.994;4.448;2023-11-22T08:42:15;9.79;;;9.74;;
71290;SDS011;59073;51.994;4.448;2023-11-22T08:44:40;9.73;;;9.56;;
71290;SDS011;59073;51.994;4.448;2023-11-22T08:47:07;10.42;;;10.17;;
71290;SDS011;59073;51.994;4.448;2023-11-22T08:49:34;10.97;;;10.72;;
71290;SDS011;59073;51.994;4.448;2023-11-22T08:51:59;11.15;;;11.00;;
71290;SDS011;59073;51.994;4.448;2023-11-22T08:54:28;11.29;;;11.22;;
71290;SDS011;59073;51.994;4.448;2023-11-22T08:56:55;11.89;;;11.69;;
71290;SDS011;59073;51.994;4.448;2023-11-22T08:59:25;11.10;;;11.02;;
71290;SDS011;59073;51.994;4.448;2023-11-22T09:01:51;11.57;;;11.46;;
71290;SDS011;59073;51.994;4.448;2023-11-22T09:04:17;11.54;;;11.39;;
71290;SDS011;59073;51.994;4.448;2023-11-22T09:06:43;11.79;;;11.59;;
71290;SDS011;59073;51.994;4.448;2023-11-22T09:09:09;11.63;;;11.52;;
71290;SDS011;59073;51.994;4.448;2023-11-22T09:11:40;11.87;;;11.64;;
71290;SDS011;59073;51.994;4.448;2023-11-22T09:14:06;11.83;;;11.74;;
71290;SDS011;59073;51.994;4.448;2023-11-22T09:16:38;11.70;;;11.64;;
71290;SDS011;59073;51.994;4.448;2023-11-22T09:19:04;11.72;;;11.53;;
71290;SDS011;59073;51.994;4.448;2023-11-22T09:21:32;11.97;;;11.79;;
71290;SDS011;59073;51.994;4.448;2023-11-22T09:23:57;11.97;;;11.84;;
71290;SDS011;59073;51.994;4.448;2023-11-22T09:26:24;12.23;;;12.09;;
71290;SDS011;59073;51.994;4.448;2023-11-22T09:28:50;11.94;;;11.79;;
71290;SDS011;59073;51.994;4.448;2023-11-22T09:31:15;12.24;;;12.15;;
71290;SDS011;59073;51.994;4.448;2023-11-22T09:33:45;12.21;;;12.13;;
71290;SDS011;59073;51.994;4.448;2023-11-22T09:36:10;12.34;;;12.20;;
71290;SDS011;59073;51.994;4.448;2023-11-22T09:38:36;12.43;;;12.34;;
71290;SDS011;59073;51.994;4.448;2023-11-22T09:41:02;12.07;;;11.90;;
71290;SDS011;59073;51.994;4.448;2023-11-22T09:43:28;11.91;;;11.70;;
71290;SDS011;59073;51.994;4.448;2023-11-22T09:45:54;12.32;;;12.22;;
71290;SDS011;59073;51.994;4.448;2023-11-22T09:48:20;12.28;;;12.17;;
71290;SDS011;59073;51.994;4.448;2023-11-22T09:51:02;11.89;;;11.75;;
71290;SDS011;59073;51.994;4.448;2023-11-22T09:53:34;12.17;;;12.13;;
71290;SDS011;59073;51.994;4.448;2023-11-22T09:56:04;11.83;;;11.70;;
71290;SDS011;59073;51.994;4.448;2023-11-22T09:58:33;11.90;;;11.75;;
71290;SDS011;59073;51.994;4.448;2023-11-22T10:01:00;12.68;;;12.51;;
71290;SDS011;59073;51.994;4.448;2023-11-22T10:03:26;12.32;;;12.05;;
71290;SDS011;59073;51.994;4.448;2023-11-22T10:05:58;12.39;;;12.15;;
71290;SDS011;59073;51.994;4.448;2023-11-22T10:08:25;11.89;;;11.85;;
71290;SDS011;59073;51.994;4.448;2023-11-22T10:10:53;12.19;;;12.04;;
71290;SDS011;59073;51.994;4.448;2023-11-22T10:13:19;12.15;;;12.01;;
71290;SDS011;59073;51.994;4.448;2023-11-22T10:15:46;12.15;;;12.06;;
71290;SDS011;59073;51.994;4.448;2023-11-22T10:18:16;12.37;;;12.16;;
71290;SDS011;59073;51.994;4.448;2023-11-22T10:20:45;13.18;;;13.00;;
71290;SDS011;59073;51.994;4.448;2023-11-22T10:23:16;13.04;;;12.81;;
71290;SDS011;59073;51.994;4.448;2023-11-22T10:25:48;11.96;;;11.81;;
71290;SDS011;59073;51.994;4.448;2023-11-22T10:28:16;12.02;;;11.87;;
71290;SDS011;59073;51.994;4.448;2023-11-22T10:30:43;12.44;;;12.24;;
71290;SDS011;59073;51.994;4.448;2023-11-22T10:33:13;11.71;;;11.46;;
71290;SDS011;59073;51.994;4.448;2023-11-22T10:35:45;11.94;;;11.71;;
71290;SDS011;59073;51.994;4.448;2023-11-22T10:38:16;12.79;;;12.47;;
71290;SDS011;59073;51.994;4.448;2023-11-22T10:40:43;11.63;;;11.41;;
71290;SDS011;59073;51.994;4.448;2023-11-22T10:43:10;11.72;;;11.51;;
71290;SDS011;59073;51.994;4.448;2023-11-22T10:45:37;10.93;;;10.74;;
71290;SDS011;59073;51.994;4.448;2023-11-22T10:48:04;11.20;;;11.04;;
71290;SDS011;59073;51.994;4.448;2023-11-22T10:50:31;10.23;;;10.10;;
71290;SDS011;59073;51.994;4.448;2023-11-22T10:52:58;10.32;;;10.24;;
71290;SDS011;59073;51.994;4.448;2023-11-22T10:55:31;10.63;;;10.44;;
71290;SDS011;59073;51.994;4.448;2023-11-22T10:58:01;10.44;;;10.44;;
71290;SDS011;59073;51.994;4.448;2023-11-22T11:00:28;10.54;;;10.52;;
71290;SDS011;59073;51.994;4.448;2023-11-22T11:03:03;10.66;;;10.49;;
71290;SDS011;59073;51.994;4.448;2023-11-22T11:05:38;10.52;;;10.49;;
71290;SDS011;59073;51.994;4.448;2023-11-22T11:08:13;10.61;;;10.60;;
71290;SDS011;59073;51.994;4.448;2023-11-22T11:10:44;10.26;;;10.19;;
71290;SDS011;59073;51.994;4.448;2023-11-22T11:13:11;11.33;;;11.08;;
71290;SDS011;59073;51.994;4.448;2023-11-22T11:15:41;10.94;;;10.70;;
71290;SDS011;59073;51.994;4.448;2023-11-22T11:18:13;10.58;;;10.53;;
71290;SDS011;59073;51.994;4.448;2023-11-22T11:20:50;9.97;;;9.95;;
71290;SDS011;59073;51.994;4.448;2023-11-22T11:23:21;10.35;;;10.29;;
71290;SDS011;59073;51.994;4.448;2023-11-22T11:25:50;10.69;;;10.57;;
71290;SDS011;59073;51.994;4.448;2023-11-22T11:28:17;10.48;;;10.41;;
71290;SDS011;59073;51.994;4.448;2023-11-22T11:30:43;10.58;;;10.44;;
71290;SDS011;59073;51.994;4.448;2023-11-22T11:33:11;9.89;;;9.80;;
71290;SDS011;59073;51.994;4.448;2023-11-22T11:35:40;9.30;;;9.08;;
71290;SDS011;59073;51.994;4.448;2023-11-22T11:38:12;9.45;;;9.14;;
71290;SDS011;59073;51.994;4.448;2023-11-22T11:40:39;9.22;;;9.12;;
71290;SDS011;59073;51.994;4.448;2023-11-22T11:43:10;9.22;;;9.15;;
71290;SDS011;59073;51.994;4.448;2023-11-22T11:45:40;9.17;;;9.09;;
71290;SDS011;59073;51.994;4.448;2023-11-22T11:48:15;9.71;;;9.53;;
71290;SDS011;59073;51.994;4.448;2023-11-22T11:50:42;8.65;;;8.54;;
71290;SDS011;59073;51.994;4.448;2023-11-22T11:53:11;8.28;;;8.21;;
71290;SDS011;59073;51.994;4.448;2023-11-22T11:55:37;8.45;;;8.33;;
71290;SDS011;59073;51.994;4.448;2023-11-22T11:58:06;8.28;;;8.22;;
71290;SDS011;59073;51.994;4.448;2023-11-22T12:00:34;8.78;;;8.65;;
71290;SDS011;59073;51.994;4.448;2023-11-22T12:03:06;8.47;;;8.35;;
71290;SDS011;59073;51.994;4.448;2023-11-22T12:05:38;8.28;;;8.18;;
71290;SDS011;59073;51.994;4.448;2023-11-22T12:08:03;8.29;;;8.25;;
71290;SDS011;59073;51.994;4.448;2023-11-22T12:10:29;8.47;;;8.41;;
71290;SDS011;59073;51.994;4.448;2023-11-22T12:12:55;8.57;;;8.47;;
71290;SDS011;59073;51.994;4.448;2023-11-22T12:15:20;8.71;;;8.66;;
71290;SDS011;59073;51.994;4.448;2023-11-22T12:17:48;8.68;;;8.60;;
71290;SDS011;59073;51.994;4.448;2023-11-22T12:20:16;8.83;;;8.81;;
71290;SDS011;59073;51.994;4.448;2023-11-22T12:22:43;8.42;;;8.37;;
71290;SDS011;59073;51.994;4.448;2023-11-22T12:25:10;8.43;;;8.42;;
71290;SDS011;59073;51.994;4.448;2023-11-22T12:27:40;9.11;;;9.06;;
71290;SDS011;59073;51.994;4.448;2023-11-22T12:30:07;9.43;;;9.25;;
71290;SDS011;59073;51.994;4.448;2023-11-22T12:32:33;9.05;;;9.04;;
71290;SDS011;59073;51.994;4.448;2023-11-22T12:34:58;8.38;;;8.33;;
71290;SDS011;59073;51.994;4.448;2023-11-22T12:37:24;8.81;;;8.68;;
71290;SDS011;59073;51.994;4.448;2023-11-22T12:39:52;8.41;;;8.26;;
71290;SDS011;59073;51.994;4.448;2023-11-22T12:42:18;8.46;;;8.33;;
71290;SDS011;59073;51.994;4.448;2023-11-22T12:44:50;7.91;;;7.79;;
71290;SDS011;59073;51.994;4.448;2023-11-22T12:50:01;8.79;;;8.63;;
71290;SDS011;59073;51.994;4.448;2023-11-22T12:52:29;7.89;;;7.82;;
71290;SDS011;59073;51.994;4.448;2023-11-22T12:54:57;7.98;;;7.87;;
71290;SDS011;59073;51.994;4.448;2023-11-22T12:57:24;8.11;;;8.02;;
71290;SDS011;59073;51.994;4.448;2023-11-22T12:59:49;8.07;;;8.07;;
71290;SDS011;59073;51.994;4.448;2023-11-22T13:02:15;8.10;;;8.09;;
71290;SDS011;59073;51.994;4.448;2023-11-22T13:04:42;8.93;;;8.83;;
71290;SDS011;59073;51.994;4.448;2023-11-22T13:07:08;9.39;;;9.21;;
71290;SDS011;59073;51.994;4.448;2023-11-22T13:09:33;9.19;;;9.12;;
71290;SDS011;59073;51.994;4.448;2023-11-22T13:12:00;9.45;;;9.41;;
71290;SDS011;59073;51.994;4.448;2023-11-22T13:14:26;9.54;;;9.37;;
71290;SDS011;59073;51.994;4.448;2023-11-22T13:16:57;9.74;;;9.70;;
71290;SDS011;59073;51.994;4.448;2023-11-22T13:19:22;10.04;;;9.98;;
71290;SDS011;59073;51.994;4.448;2023-11-22T13:21:49;9.69;;;9.59;;
71290;SDS011;59073;51.994;4.448;2023-11-22T13:24:15;9.93;;;9.85;;
71290;SDS011;59073;51.994;4.448;2023-11-22T13:26:43;10.09;;;9.95;;
71290;SDS011;59073;51.994;4.448;2023-11-22T13:29:08;9.99;;;9.90;;
71290;SDS011;59073;51.994;4.448;2023-11-22T13:31:34;10.29;;;10.26;;
71290;SDS011;59073;51.994;4.448;2023-11-22T13:33:59;10.37;;;10.27;;
71290;SDS011;59073;51.994;4.448;2023-11-22T13:36:25;10.02;;;9.98;;
71290;SDS011;59073;51.994;4.448;2023-11-22T13:38:50;9.29;;;9.28;;
71290;SDS011;59073;51.994;4.448;2023-11-22T13:41:15;9.14;;;9.13;;
71290;SDS011;59073;51.994;4.448;2023-11-22T13:43:41;9.82;;;9.74;;
71290;SDS011;59073;51.994;4.448;2023-11-22T13:46:06;9.33;;;9.22;;
71290;SDS011;59073;51.994;4.448;2023-11-22T13:48:35;9.68;;;9.60;;
71290;SDS011;59073;51.994;4.448;2023-11-22T13:51:01;9.77;;;9.73;;
71290;SDS011;59073;51.994;4.448;2023-11-22T13:53:28;9.93;;;9.91;;
71290;SDS011;59073;51.994;4.448;2023-11-22T13:55:58;9.38;;;9.34;;
71290;SDS011;59073;51.994;4.448;2023-11-22T13:58:25;9.50;;;9.48;;
71290;SDS011;59073;51.994;4.448;2023-11-22T14:00:51;9.89;;;9.89;;
71290;SDS011;59073;51.994;4.448;2023-11-22T14:03:19;9.99;;;9.99;;
71290;SDS011;59073;51.994;4.448;2023-11-22T14:05:47;10.25;;;10.16;;
71290;SDS011;59073;51.994;4.448;2023-11-22T14:08:13;9.85;;;9.83;;
71290;SDS011;59073;51.994;4.448;2023-11-22T14:10:40;9.82;;;9.76;;
71290;SDS011;59073;51.994;4.448;2023-11-22T14:13:06;10.13;;;10.07;;
71290;SDS011;59073;51.994;4.448;2023-11-22T14:15:33;10.04;;;9.94;;
71290;SDS011;59073;51.994;4.448;2023-11-22T14:17:59;10.15;;;10.05;;
71290;SDS011;59073;51.994;4.448;2023-11-22T14:20:25;9.88;;;9.83;;
71290;SDS011;59073;51.994;4.448;2023-11-22T14:22:50;10.14;;;10.04;;
71290;SDS011;59073;51.994;4.448;2023-11-22T14:25:16;10.56;;;10.43;;
71290;SDS011;59073;51.994;4.448;2023-11-22T14:27:42;10.73;;;10.62;;
71290;SDS011;59073;51.994;4.448;2023-11-22T14:30:09;10.96;;;10.91;;
71290;SDS011;59073;51.994;4.448;2023-11-22T14:32:39;11.08;;;10.99;;
71290;SDS011;59073;51.994;4.448;2023-11-22T14:35:05;11.53;;;11.37;;
71290;SDS011;59073;51.994;4.448;2023-11-22T14:37:35;11.13;;;11.04;;
71290;SDS011;59073;51.994;4.448;2023-11-22T14:40:02;11.15;;;11.07;;